createdAt,value
2024-03-16T00:02:00.610Z,6
2024-03-16T00:18:31.009Z,8
2024-03-16T00:24:01.182Z,5
2024-03-16T00:35:01.554Z,14
2024-03-16T00:40:31.651Z,8
2024-03-16T00:46:01.866Z,12
2024-03-16T00:51:31.990Z,9
2024-03-16T00:57:02.177Z,11
2024-03-16T01:02:32.331Z,10
2024-03-16T01:08:02.516Z,6
2024-03-16T01:13:32.685Z,7
2024-03-16T01:19:02.881Z,9
2024-03-16T01:24:33.028Z,7
2024-03-16T01:30:03.222Z,8
2024-03-16T01:35:33.368Z,6
2024-03-16T01:41:03.535Z,9
2024-03-16T01:46:33.692Z,6
2024-03-16T01:52:04.011Z,7
2024-03-16T01:57:34.054Z,6
2024-03-16T02:14:04.530Z,7
2024-03-16T02:19:34.691Z,10
2024-03-16T02:25:04.908Z,8
2024-03-16T02:30:35.060Z,9
2024-03-16T02:36:05.238Z,10
2024-03-16T02:47:05.549Z,9
2024-03-16T02:52:35.716Z,10
2024-03-16T03:03:36.051Z,11
2024-03-16T03:09:06.213Z,14
2024-03-16T03:14:36.399Z,9
2024-03-16T03:20:06.562Z,11
2024-03-16T03:25:37.941Z,9
2024-03-16T03:31:06.895Z,10
2024-03-16T03:36:37.094Z,12
2024-03-16T03:42:07.226Z,10
2024-03-16T03:47:37.448Z,6
2024-03-16T03:53:07.575Z,9
2024-03-16T03:58:37.746Z,16
2024-03-16T04:04:07.971Z,6
2024-03-16T04:15:08.255Z,8
2024-03-16T04:26:08.592Z,12
2024-03-16T04:31:38.750Z,7
2024-03-16T04:37:08.967Z,8
2024-03-16T04:42:39.144Z,10
2024-03-16T04:48:09.307Z,9
2024-03-16T04:53:39.448Z,8
2024-03-16T04:59:09.599Z,13
2024-03-16T05:04:39.765Z,9
2024-03-16T05:15:40.129Z,10
2024-03-16T05:21:10.264Z,12
2024-03-16T05:26:40.449Z,11
2024-03-16T05:32:10.622Z,13
2024-03-16T05:48:41.125Z,12
2024-03-16T05:54:11.320Z,14
2024-03-16T05:59:41.482Z,10
2024-03-16T06:05:11.636Z,12
2024-03-16T06:10:41.822Z,13
2024-03-16T06:21:42.146Z,14
2024-03-16T06:27:12.308Z,12
2024-03-16T06:32:42.474Z,11
2024-03-16T06:38:12.656Z,19
2024-03-16T06:43:42.824Z,13
2024-03-16T06:49:13.026Z,15
2024-03-16T06:54:44.651Z,14
2024-03-16T07:00:13.394Z,17
2024-03-16T07:05:43.544Z,16
2024-03-16T07:11:13.692Z,11
2024-03-16T07:16:43.881Z,15
2024-03-16T07:22:14.211Z,11
2024-03-16T07:27:44.221Z,17
2024-03-16T07:33:14.364Z,12
2024-03-16T07:38:44.515Z,14
2024-03-16T07:44:14.688Z,11
2024-03-16T07:49:44.863Z,9
2024-03-16T07:55:15.063Z,5
2024-03-16T08:06:15.350Z,7
2024-03-16T08:17:17.514Z,4
2024-03-16T08:33:49.856Z,6
2024-03-16T08:44:52.004Z,5
2024-03-16T08:55:54.148Z,4
2024-03-16T09:01:24.491Z,5
2024-03-16T09:12:26.480Z,2
2024-03-16T09:23:26.843Z,3
2024-03-16T09:28:57.002Z,2
2024-03-16T09:39:57.335Z,6
2024-03-16T09:45:27.569Z,4
2024-03-16T09:50:57.690Z,7
2024-03-16T09:56:27.864Z,4
2024-03-16T10:01:58.030Z,3
2024-03-16T10:12:58.384Z,7
2024-03-16T10:18:28.526Z,4
2024-03-16T10:23:58.694Z,5
2024-03-16T10:29:28.871Z,4
2024-03-16T10:40:31.032Z,5
2024-03-16T11:02:35.369Z,10
2024-03-16T11:08:05.533Z,7
2024-03-16T11:19:05.862Z,4
2024-03-16T11:30:10.443Z,5
2024-03-16T11:46:40.324Z,4
2024-03-16T11:57:42.502Z,11
2024-03-16T12:08:44.669Z,9
2024-03-16T12:19:46.829Z,6
2024-03-16T12:30:48.990Z,4
2024-03-16T12:41:51.129Z,5
2024-03-16T12:52:53.283Z,6
2024-03-16T12:58:23.464Z,7
2024-03-16T13:09:23.801Z,6
2024-03-16T13:20:25.956Z,4
2024-03-16T13:31:29.967Z,6
2024-03-16T13:42:30.265Z,8
2024-03-16T13:53:32.499Z,7
2024-03-16T13:59:02.586Z,6
2024-03-16T14:10:04.747Z,3
2024-03-16T14:21:06.912Z,5
2024-03-16T14:26:37.080Z,6
2024-03-16T14:32:07.283Z,7
2024-03-16T14:43:07.582Z,4
2024-03-16T14:48:37.750Z,5
2024-03-16T14:54:07.948Z,7
2024-03-16T15:05:08.283Z,4
2024-03-16T15:10:38.512Z,6
2024-03-16T15:16:08.627Z,5
2024-03-16T15:21:38.777Z,4
2024-03-16T15:27:08.937Z,6
2024-03-16T15:32:39.149Z,4
2024-03-16T15:38:09.298Z,3
2024-03-16T15:43:39.467Z,5
2024-03-16T15:49:09.621Z,6
2024-03-16T15:54:39.797Z,7
2024-03-16T16:00:09.989Z,3
2024-03-16T16:11:10.308Z,8
2024-03-16T16:16:40.467Z,4
2024-03-16T16:22:10.649Z,6
2024-03-16T16:27:40.822Z,7
2024-03-16T16:38:41.163Z,4
2024-03-16T17:00:43.703Z,3
2024-03-16T17:11:45.820Z,4
2024-03-16T17:22:47.984Z,3
2024-03-16T17:33:50.162Z,6
2024-03-16T17:44:52.310Z,4
2024-03-16T18:06:56.622Z,5
2024-03-16T18:18:04.132Z,6
2024-03-16T18:29:00.945Z,5
2024-03-16T18:40:03.097Z,6
2024-03-16T18:45:33.283Z,4
2024-03-16T18:51:03.439Z,6
2024-03-16T19:02:05.604Z,4
2024-03-16T19:07:35.778Z,7
2024-03-16T19:13:05.961Z,5
2024-03-16T19:24:08.116Z,4
2024-03-16T19:29:38.277Z,5
2024-03-16T19:40:40.444Z,7
2024-03-16T19:46:10.640Z,8
2024-03-16T19:57:12.773Z,4
2024-03-16T20:02:42.945Z,5
2024-03-16T20:08:13.137Z,7
2024-03-16T20:13:43.293Z,6
2024-03-16T20:19:13.473Z,5
2024-03-16T20:35:43.964Z,4
2024-03-16T20:41:14.135Z,5
2024-03-16T20:46:44.323Z,9
2024-03-16T20:52:14.516Z,7
2024-03-16T20:57:47.482Z,6
2024-03-16T21:03:14.858Z,4
2024-03-16T21:08:45.034Z,12
2024-03-16T21:14:15.205Z,9
2024-03-16T21:19:45.370Z,8
2024-03-16T21:25:15.537Z,4
2024-03-16T21:30:45.696Z,8
2024-03-16T21:41:46.076Z,9
2024-03-16T21:47:16.238Z,10
2024-03-16T21:52:46.399Z,12
2024-03-16T21:58:16.591Z,9
2024-03-16T22:03:46.744Z,10
2024-03-16T22:09:16.913Z,11
2024-03-16T22:14:47.089Z,8
2024-03-16T22:20:17.257Z,7
2024-03-16T22:25:47.425Z,11
2024-03-16T22:31:17.618Z,12
2024-03-16T22:36:47.783Z,7
2024-03-16T22:42:17.948Z,13
2024-03-16T22:47:48.113Z,9
2024-03-16T22:53:18.290Z,5
2024-03-16T22:58:48.463Z,7
2024-03-16T23:09:48.813Z,8
2024-03-16T23:15:18.975Z,7
2024-03-16T23:20:49.139Z,9
2024-03-16T23:26:19.319Z,7
2024-03-16T23:31:49.487Z,8
2024-03-16T23:37:19.657Z,7
2024-03-16T23:48:19.983Z,8
2024-03-16T23:53:50.158Z,10
2024-03-16T23:59:20.317Z,9
